logo
App data

Fortify

Fortify is a real-time strategy game with a tower defense twist. Defend your castle from attacking monsters and siege weapons by using ranged and melee defenders, catapults, cannons, oil fields and more. You start at the iron age, advancing to the medieval age, and later, the imperial age.
Store | Hub | SteamDB
Developer: Holgersson Entertainment Publisher: Holgersson Entertainment
Genre: Action, Indie, Strategy
Languages: English
Tags: Strategy (24), Indie (23), Action (22), RTS (10), Tower Defense (8)
Category: Single-player, Multi-player, Steam Achievements, Steam Cloud, Stats, Steam Leaderboards
Release date: Apr 8, 2016
Price: $4.99
Old userscore: 73% Owners: 0 .. 20,000
Followers: 1,305
Peak concurrent players yesterday: 1
YouTube stats: 13,896 views and 161 comments for top 50 videos uploaded last week, 1 new videos uploaded yesterday.

Steam Spy is still in beta, so expect major bugs.

Owners data:

Access restricted.

This feature is only available to users with special access rights. Sorry.

If you want to proceed, you need to register or log in first and then back Steam Spy on Patreon. Look for Indie or Pro pledge.

Don't forget to use the same email as on Steam Spy!

Audience in 2 weeks:

Access restricted.

This feature is only available to users with special access rights. Sorry.

If you want to proceed, you need to register or log in first and then back Steam Spy on Patreon. Look for Indie or Pro pledge.

Don't forget to use the same email as on Steam Spy!

Peak daily concurrent players:

CCU data courtesy of SteamDB. Used with permission.

Hourly concurrent players:

Daily Twitch stats:

Hourly Twitch stats:

Followers over time

Access restricted.

This feature is only available to users with special access rights. Sorry.

If you want to proceed, you need to register or log in first and then back Steam Spy on Patreon. Look for Indie or Pro pledge.

Don't forget to use the same email as on Steam Spy!

Views for top 50 videos on YouTube for this game:

Games similar to this one:

# Game Release date
Price
Score rank
(Userscore / Metascore)
Owners
Players
Playtime (Median)
1 Mindless Running Feb 22, 2016 $0.49N/A (N/A)20,000 .. 50,0000%00:00 (00:00)
2 Puddle Nov 9, 2012 $7.99N/A (N/A)50,000 .. 100,0000%00:00 (00:00)
3 Snooker Nation Championship Apr 27, 2016 $1.59N/A (N/A)0 .. 20,0000%00:00 (00:00)
4 BIT.TRIP VOID Dec 19, 2012 $3.99N/A (N/A)20,000 .. 50,0000%00:00 (00:00)
5 Bunker Punks May 28, 2018 $2.24N/A (N/A)0 .. 20,0000%00:00 (00:00)
6 Retro/Grade Mar 20, 2013 $2.49N/A (N/A)50,000 .. 100,0000%00:00 (00:00)
7 Dashy Square Apr 26, 2016 $2.99N/A (N/A)0 .. 20,0000%00:00 (00:00)
8 Tales From Space: Mutant Blobs Attack Aug 15, 2012 $2.99N/A (N/A/83%)100,000 .. 200,0000%00:00 (00:00)
9 Share May 3, 2016 $0.49N/A (N/A)20,000 .. 50,0000%00:00 (00:00)
10 Critter Crunch Sep 11, 2012 $1.74N/A (N/A)0 .. 20,0000%00:00 (00:00)
11 NORTH Apr 27, 2016 $0.49N/A (N/A)200,000 .. 500,0000%00:00 (00:00)
12 Unmechanical Aug 8, 2012 $9.99N/A (N/A/74%)100,000 .. 200,0000%00:00 (00:00)
13 Amigdala Mar 28, 2016 $5.99N/A (N/A)20,000 .. 50,0000%00:00 (00:00)
14 BIT.TRIP BEAT Nov 2, 2010 $3.99N/A (N/A)200,000 .. 500,0000%00:00 (00:00)
15 上帝之城 I:监狱帝国 [City of God I - Prison Empire] Jul 9, 2018 $18.99N/A (N/A)50,000 .. 100,0000%00:00 (00:00)
16 Sugar Cube: Bittersweet Factory Nov 7, 2012 $1.74N/A (N/A)20,000 .. 50,0000%00:00 (00:00)
17 Cube Land Arena Mar 29, 2016 $0.49N/A (N/A)20,000 .. 50,0000%00:00 (00:00)
18 Super Splatters Jun 26, 2013 N/AN/A (N/A/73%)20,000 .. 50,0000%00:00 (00:00)
19 Doodle Kingdom Jun 9, 2016 $3.14N/A (N/A)50,000 .. 100,0000%00:00 (00:00)
20 Party of Sin Dec 13, 2012 $2.99N/A (N/A)50,000 .. 100,0000%00:00 (00:00)
21 Hero Quest: Tower Conflict Apr 13, 2016 $0.49N/A (N/A)200,000 .. 500,0000%00:00 (00:00)
22 Ms. Splosion Man Apr 3, 2013 $2.49N/A (N/A)50,000 .. 100,0000%00:00 (00:00)
23 Rencounter Nov 4, 2016 $0.59N/A (N/A)20,000 .. 50,0000%00:00 (00:00)
24 Home Jun 1, 2012 $4.99N/A (N/A/69%)200,000 .. 500,0000%00:00 (00:00)
25 CrazyCars3D Mar 28, 2016 $2.99N/A (N/A)50,000 .. 100,0000%00:00 (00:00)
26 SOL: Exodus Jan 25, 2012 $7.99N/A (N/A/57%)50,000 .. 100,0000%00:00 (00:00)
27 10 Second Ninja X Jul 19, 2016 $0.99N/A (N/A)200,000 .. 500,0000%00:00 (00:00)
28 Ultratron Mar 18, 2013 $4.99N/A (N/A)100,000 .. 200,0000%00:00 (00:00)
29 OPUS: The Day We Found Earth Apr 21, 2016 $8.99N/A (N/A)100,000 .. 200,0000%00:00 (00:00)
30 Titan Attacks! Feb 3, 2012 $4.99N/A (N/A)50,000 .. 100,0000%00:00 (00:00)
31 Empire of the Gods May 13, 2008 $0.99N/A (N/A)50,000 .. 100,0000%00:00 (00:00)
32 Cargo Commander Nov 1, 2012 $1.99N/A (N/A)100,000 .. 200,0000%00:00 (00:00)
33 Wrath of Anna Apr 2, 2018 $19.99N/A (N/A)50,000 .. 100,0000%00:00 (00:00)
34 BIT.TRIP CORE Oct 2, 2012 $3.99N/A (N/A)20,000 .. 50,0000%00:00 (00:00)
35 Call Of The Mighty Warriors Jun 2, 2016 $0.49N/A (N/A)20,000 .. 50,0000%00:00 (00:00)
36 Starship Annihilator Sep 2, 2016 $0.49N/A (N/A)20,000 .. 50,0000%00:00 (00:00)
37 Karma Miwa Aug 12, 2016 $0.99N/A (N/A)20,000 .. 50,0000%00:00 (00:00)
38 Deisim Dec 19, 2016 $6.39N/A (N/A)20,000 .. 50,000100%00:18 (00:18)
39 Super Duper Party Pooper Jun 6, 2016 $0.49N/A (N/A/40%)100,000 .. 200,0000%00:00 (00:00)
40 Please, Don't Touch Anything 3D Dec 7, 2016 $4.49N/A (N/A)20,000 .. 50,0000%00:00 (00:00)
41 DashBored Jun 13, 2016 $4.99N/A (N/A)20,000 .. 50,0000%00:00 (00:00)
42 mr.President Prologue Episode Sep 20, 2016 $0.49N/A (N/A)20,000 .. 50,0000%00:00 (00:00)
43 Bohemian Killing Jul 21, 2016 $2.59N/A (N/A/55%)20,000 .. 50,0000%00:00 (00:00)
44 Can't Drive This Sep 25, 2016 $13.99N/A (N/A)0 .. 20,0000%00:00 (00:00)
45 You Deserve Aug 19, 2016 $0.99N/A (N/A)20,000 .. 50,0000%00:00 (00:00)
46 Scanner Sombre Apr 26, 2017 $1.49N/A (N/A/67%)100,000 .. 200,0000%00:00 (00:00)
47 Dinosaur Forest May 17, 2017 $0.49N/A (N/A)50,000 .. 100,0000%00:00 (00:00)
48 ORCS May 20, 2016 $0.49N/A (N/A)20,000 .. 50,0000%00:00 (00:00)
49 Joana's Life Sep 1, 2016 $2.99N/A (N/A)50,000 .. 100,0000%00:00 (00:00)
50 Star Drifter Jun 1, 2016 $0.49N/A (N/A)200,000 .. 500,0000%00:00 (00:00)
51 It Comes Around - A Kinetic Novel Sep 29, 2016 $2.99N/A (N/A)20,000 .. 50,0000%00:00 (00:00)
52 Wayout Nov 4, 2016 $0.49N/A (N/A)50,000 .. 100,0000%00:00 (00:00)
53 The Novelist Dec 10, 2013 $0.99N/A (N/A/66%)100,000 .. 200,0000%00:00 (00:00)
54 Project LUX Feb 2, 2018 $12.49N/A (N/A)0 .. 20,0000%00:00 (00:00)
55 Montague's Mount Nov 19, 2013 $1.99N/A (N/A/39%)20,000 .. 50,0000%00:00 (00:00)
56 Artillerists Jan 2, 2017 $3.99N/A (N/A)50,000 .. 100,0000%00:00 (00:00)
57 Knytt Underground Oct 25, 2013 $1.39N/A (N/A)50,000 .. 100,0000%00:00 (00:00)
58 Three Kingdoms The Last Warlord May 26, 2017 $8.49N/A (N/A)50,000 .. 100,0000%00:00 (00:00)
59 Papo & Yo Apr 18, 2013 $14.99N/A (N/A/70%)200,000 .. 500,0000%00:00 (00:00)
60 Zolg Dec 2, 2016 $0.49N/A (N/A)20,000 .. 50,0000%00:00 (00:00)
61 Escape Goat Jun 14, 2012 $2.49N/A (N/A)50,000 .. 100,0000%00:00 (00:00)
62 GORN Jul 18, 2019 $9.99N/A (N/A/85%)200,000 .. 500,0000%00:00 (00:00)
63 Dream Jul 31, 2015 $1.79N/A (N/A/59%)50,000 .. 100,0000%00:00 (00:00)
64 99Vidas Dec 22, 2016 $1.29N/A (N/A/69%)20,000 .. 50,0000%00:00 (00:00)
65 Gravity Ghost Jan 26, 2015 $14.99N/A (N/A/75%)20,000 .. 50,0000%00:00 (00:00)
66 Monolith Jun 7, 2017 $3.99N/A (N/A/83%)100,000 .. 200,0000%00:00 (00:00)
67 Bad Hotel Oct 16, 2013 $4.99N/A (N/A)50,000 .. 100,0000%00:00 (00:00)
68 Witch It Oct 22, 2020 $11.99N/A (N/A)200,000 .. 500,0000%00:00 (00:00)
69 Solar Flux Oct 24, 2013 $9.99N/A (N/A)100,000 .. 200,0000%00:00 (00:00)
70 BoomTown! Deluxe Oct 14, 2016 $1.99N/A (N/A)20,000 .. 50,0000%00:00 (00:00)
71 Godus At some point $14.99N/A (N/A)50,000 .. 100,0000%00:00 (00:00)
72 Introvert Quest Mar 15, 2017 $2.49N/A (N/A)100,000 .. 200,0000%00:00 (00:00)
73 Maia Nov 23, 2018 $24.99N/A (N/A)50,000 .. 100,0000%00:00 (00:00)
74 Son of a Witch May 16, 2018 $7.49N/A (N/A)20,000 .. 50,0000%00:00 (00:00)
75 Wake At some point $4.99N/A (N/A)0 .. 20,0000%00:00 (00:00)
76 Distant Space Dec 20, 2016 $0.49N/A (N/A)50,000 .. 100,0000%00:00 (00:00)
77 FOTONICA Nov 6, 2014 $1.49N/A (N/A/71%)50,000 .. 100,0000%00:00 (00:00)
78 Pixel Gladiator Sep 8, 2017 $0.74N/A (N/A)20,000 .. 50,0000%00:00 (00:00)
79 Element4l May 24, 2013 $8.99N/A (N/A/77%)50,000 .. 100,0000%00:00 (00:00)
80 Child Phobia: Nightcoming Fears Dec 20, 2016 $1.99N/A (N/A)20,000 .. 50,0000%00:00 (00:00)
81 Escape Goat 2 Mar 24, 2014 $4.99N/A (N/A/76%)50,000 .. 100,0000%00:00 (00:00)
82 Snake Pass Mar 28, 2017 $4.99N/A (N/A/71%)200,000 .. 500,0000%00:00 (00:00)
83 Super Puzzle Platformer Deluxe May 24, 2013 $1.59N/A (N/A)20,000 .. 50,0000%00:00 (00:00)
84 Mistwood Heroes Dec 30, 2016 $0.49N/A (N/A)20,000 .. 50,0000%00:00 (00:00)
85 Survivor Squad Nov 8, 2013 $0.59N/A (N/A)100,000 .. 200,0000%00:00 (00:00)
86 An Octave Higher Mar 27, 2015 $2.39N/A (N/A)0 .. 20,0000%00:00 (00:00)
87 Luna Sky Oct 2, 2015 $12.99N/A (N/A)50,000 .. 100,0000%00:00 (00:00)
88 NEO AQUARIUM - The King of Crustaceans - Jun 8, 2015 $1.79N/A (N/A)50,000 .. 100,0000%00:00 (00:00)
89 Interstellar Rift Sep 24, 2020 $13.39N/A (N/A)20,000 .. 50,0000%00:00 (00:00)
90 Home is Where One Starts... May 12, 2015 $0.5N/A (N/A)20,000 .. 50,0000%00:00 (00:00)
91 Dustbowl May 18, 2015 $4.49N/A (N/A)0 .. 20,0000%00:00 (00:00)
92 Beyond Eyes Aug 11, 2015 $2.99N/A (N/A/60%)100,000 .. 200,0000%00:00 (00:00)
93 Pixel Star May 22, 2015 $1.49N/A (N/A)20,000 .. 50,0000%00:00 (00:00)
94 Big Action Mega Fight! Jan 12, 2016 $0.99N/A (N/A)20,000 .. 50,0000%00:00 (00:00)
95 Countless Rooms of Death Feb 20, 2014 $0.99N/A (N/A)20,000 .. 50,0000%00:00 (00:00)
96 Gryphon Knight Epic Aug 20, 2015 $12.99N/A (N/A/55%)20,000 .. 50,0000%00:00 (00:00)
97 Disillusions Manga Horror Apr 6, 2013 $0.66N/A (N/A)20,000 .. 50,0000%00:00 (00:00)
98 Canabalt Apr 30, 2015 $1.19N/A (N/A)20,000 .. 50,0000%00:00 (00:00)
99 Scribble Space Jun 1, 2015 $1.99N/A (N/A)20,000 .. 50,0000%00:00 (00:00)
100 Hare In The Hat Apr 1, 2015 $0.69N/A (N/A)50,000 .. 100,0000%00:00 (00:00)
101 Porcunipine May 21, 2015 $0.99N/A (N/A)20,000 .. 50,0000%00:00 (00:00)
102 Spellsworn Mar 13, 2018 FreeN/A (N/A)200,000 .. 500,0000%00:00 (00:00)
103 Munin Jun 10, 2014 $0.49N/A (N/A/68%)200,000 .. 500,0000%00:00 (00:00)
104 Stranded May 20, 2014 $0.59N/A (N/A)20,000 .. 50,0000%00:00 (00:00)
105 Rabbit Hole 3D: Steam Edition Apr 25, 2014 $2.99N/A (N/A)50,000 .. 100,0000%00:00 (00:00)
106 Drifter Mar 4, 2014 $11.99N/A (N/A)0 .. 20,0000%00:00 (00:00)
107 Kromaia Oct 23, 2014 $19.99N/A (N/A/68%)20,000 .. 50,0000%00:00 (00:00)
108 STARWHAL Sep 29, 2014 $11.99N/A (N/A)50,000 .. 100,0000%00:00 (00:00)
109 ReignMaker Apr 16, 2014 $14.99N/A (N/A)50,000 .. 100,0000%00:00 (00:00)
110 Full Bore May 6, 2014 $3.74N/A (N/A/72%)20,000 .. 50,0000%00:00 (00:00)
111 Autocraft Sep 20, 2017 $2.49N/A (N/A)20,000 .. 50,0000%00:00 (00:00)
112 Jones On Fire Mar 14, 2013 $0.74N/A (N/A)50,000 .. 100,0000%00:00 (00:00)
113 Guns of Icarus Alliance Mar 31, 2017 $0.74N/A (N/A)100,000 .. 200,0000%00:00 (00:00)
114 Actual Sunlight Apr 3, 2014 $4.99N/A (N/A/77%)50,000 .. 100,0000%00:00 (00:00)
115 Dwelvers Sep 10, 2014 $14.99N/A (N/A)0 .. 20,0000%00:00 (00:00)
116 The Archotek Project Apr 28, 2017 $0.99N/A (N/A)200,000 .. 500,0000%00:00 (00:00)
117 Volt Apr 14, 2014 $0.99N/A (N/A)100,000 .. 200,0000%00:00 (00:00)
118 Labyrinthine Dreams May 26, 2015 $0.49N/A (N/A)20,000 .. 50,0000%00:00 (00:00)
119 Three Dead Zed Jul 7, 2014 $5.99N/A (N/A)50,000 .. 100,0000%00:00 (00:00)
120 Imagine Earth Jan 20, 2021 $12.99N/A (N/A)20,000 .. 50,00020%02:07 (00:42)
121 Uriel's Chasm Sep 12, 2014 $0.74N/A (N/A)200,000 .. 500,0000%00:00 (00:00)
122 Football, Tactics & Glory Jun 1, 2018 $14.99N/A (N/A)100,000 .. 200,0000%00:00 (00:00)
123 Earth Overclocked Dec 4, 2015 $0.99N/A (N/A)20,000 .. 50,0000%00:00 (00:00)
124 The Adventures of Mr. Bobley Jun 30, 2015 $0.99N/A (N/A)100,000 .. 200,0000%00:00 (00:00)
125 iZBOT Sep 1, 2015 $11.99N/A (N/A)20,000 .. 50,0000%00:00 (00:00)
126 Monument Jun 5, 2015 $0.49N/A (N/A)20,000 .. 50,0000%00:00 (00:00)
127 Stardust Galaxy Warriors: Stellar Climax Nov 10, 2015 $9.99N/A (N/A)0 .. 20,0000%00:00 (00:00)
128 Western Press Apr 21, 2016 $0.99N/A (N/A)20,000 .. 50,0000%00:00 (00:00)
129 Redemption: Eternal Quest Aug 28, 2015 $1.19N/A (N/A)100,000 .. 200,0000%00:00 (00:00)
130 Sky Rogue Aug 24, 2017 $9.99N/A (N/A)50,000 .. 100,0000%00:00 (00:00)
131 Tobari and the Night of the Curious Moon Aug 11, 2012 $4.99N/A (N/A)0 .. 20,0000%00:00 (00:00)
132 Action Alien Jun 26, 2015 $1.79N/A (N/A)50,000 .. 100,0000%00:00 (00:00)
133 Polyball Dec 1, 2017 $11.24N/A (N/A)100,000 .. 200,0000%00:00 (00:00)
134 Dead In Bermuda Aug 27, 2015 $3.74N/A (N/A)20,000 .. 50,0000%00:00 (00:00)
135 Season of 12 Colors Mar 14, 2016 $1.94N/A (N/A)50,000 .. 100,0000%00:00 (00:00)
136 Aviary Attorney Dec 21, 2015 $10.49N/A (N/A/77%)50,000 .. 100,0000%00:00 (00:00)
137 Shoot 1UP Sep 23, 2015 $1.19N/A (N/A)20,000 .. 50,0000%00:00 (00:00)
138 none Nov 4, 2015 N/AN/A (N/A)0 .. 20,0000%00:00 (00:00)
139 Oblitus Feb 27, 2015 $1.49N/A (N/A/69%)0 .. 20,0000%00:00 (00:00)
140 Chariot Nov 12, 2014 $1.49N/A (N/A/76%)50,000 .. 100,0000%00:00 (00:00)
141 Iron Fisticle Sep 16, 2014 $0.89N/A (N/A)20,000 .. 50,0000%00:00 (00:00)
142 The Promised Land Jul 11, 2012 $0.69N/A (N/A)20,000 .. 50,0000%00:00 (00:00)
143 Curses 'N Chaos Aug 18, 2015 $9.99N/A (N/A)20,000 .. 50,0000%00:00 (00:00)
144 Dreaming Sarah Mar 12, 2015 $1.19N/A (N/A)0 .. 20,0000%00:00 (00:00)
145 Back to Bed Aug 6, 2014 $0.59N/A (N/A)500,000 .. 1,000,0000%00:00 (00:00)
146 Captain Forever Remix Jun 3, 2016 $9.99N/A (N/A)50,000 .. 100,0000%00:00 (00:00)
147 Mega Coin Squad Aug 15, 2014 $1.49N/A (N/A/56%)0 .. 20,0000%00:00 (00:00)
148 Frederic: Resurrection of Music May 16, 2014 $0.5N/A (N/A)100,000 .. 200,0000%00:00 (00:00)
149 OTTTD Aug 6, 2014 $1.99N/A (N/A)50,000 .. 100,0000%00:00 (00:00)
150 Frederic: Evil Strikes Back May 23, 2014 $0.79N/A (N/A)50,000 .. 100,0000%00:00 (00:00)
151 The Masterplan Jun 4, 2015 $19.99N/A (N/A/68%)100,000 .. 200,0000%00:00 (00:00)
152 Rhythm Destruction Jun 16, 2014 $4.99N/A (N/A)50,000 .. 100,0000%00:00 (00:00)
153 Velocibox Sep 8, 2014 $4.99N/A (N/A)50,000 .. 100,0000%00:00 (00:00)
154 Boson X Sep 15, 2014 $1.49N/A (N/A)50,000 .. 100,0000%00:00 (00:00)
155 Squishy the Suicidal Pig Oct 23, 2014 $0.89N/A (N/A)200,000 .. 500,0000%00:00 (00:00)
156 Press X to Not Die Oct 6, 2017 $0.74N/A (N/A)100,000 .. 200,0000%00:00 (00:00)
157 Bell Ringer Mar 6, 2016 $6.99N/A (N/A)200,000 .. 500,0000%00:00 (00:00)
158 1,000 Heads Among the Trees Dec 11, 2015 $4.99N/A (N/A)20,000 .. 50,0000%00:00 (00:00)
159 Space Moth DX Jan 22, 2016 $4.99N/A (N/A)20,000 .. 50,0000%00:00 (00:00)
160 Timber and Stone Oct 20, 2015 $4.99N/A (N/A)20,000 .. 50,0000%00:00 (00:00)
161 PERFECT ANGLE: The puzzle game based on optical illusions Dec 22, 2015 $2.49N/A (N/A)50,000 .. 100,0000%00:00 (00:00)
162 The Purring Quest Nov 12, 2015 $1.09N/A (N/A)100,000 .. 200,0000%00:00 (00:00)
163 IMSCARED Jan 31, 2016 $3.99N/A (N/A)20,000 .. 50,0000%00:00 (00:00)
164 Perraw - FPS Clone War Alpha Jan 29, 2016 $0.49N/A (N/A)0 .. 20,0000%00:00 (00:00)
165 Blaster Shooter GunGuy! Aug 10, 2015 $0.99N/A (N/A)50,000 .. 100,0000%00:00 (00:00)
166 Morphine Oct 26, 2015 $0.74N/A (N/A)20,000 .. 50,0000%00:00 (00:00)
167 Wild Island Quest Sep 4, 2015 $0.49N/A (N/A)50,000 .. 100,0000%00:00 (00:00)
168 Heavy Gear Assault Feb 10, 2017 $39.99N/A (N/A)20,000 .. 50,0000%00:00 (00:00)
169 Shmadow Nov 3, 2015 $1.99N/A (N/A)20,000 .. 50,0000%00:00 (00:00)
170 Cosmic Leap Mar 17, 2016 $0.49N/A (N/A)20,000 .. 50,0000%00:00 (00:00)
171 Kitchen Simulator 2015 Sep 4, 2015 $0.69N/A (N/A)50,000 .. 100,0000%00:00 (00:00)
172 Godus Wars Feb 3, 2016 $14.99N/A (N/A)50,000 .. 100,0000%00:00 (00:00)
173 A Druid's Duel Feb 25, 2015 $7.99N/A (N/A/70%)0 .. 20,0000%00:00 (00:00)
174 Glorkian Warrior: The Trials Of Glork Mar 24, 2015 $1.59N/A (N/A)20,000 .. 50,0000%00:00 (00:00)
175 Dwarf Tower May 5, 2014 $0.99N/A (N/A)20,000 .. 50,0000%00:00 (00:00)
176 Ninja Pizza Girl Sep 30, 2015 $0.69N/A (N/A/82%)50,000 .. 100,0000%00:00 (00:00)
177 Sky Mercenaries Dec 16, 2014 $9.99N/A (N/A)20,000 .. 50,0000%00:00 (00:00)
178 Horizon Shift May 29, 2015 $0.99N/A (N/A)100,000 .. 200,0000%00:00 (00:00)
179 Chronicles of a Dark Lord: Episode 1 Tides of Fate Complete Dec 19, 2014 N/AN/A (N/A)50,000 .. 100,0000%00:00 (00:00)
180 Instant Dungeon! Nov 25, 2014 $1.33N/A (N/A)0 .. 20,0000%00:00 (00:00)
181 Four Sided Fantasy Aug 30, 2016 $0.99N/A (N/A)0 .. 20,0000%00:00 (00:00)
182 Traverser Jul 9, 2015 $2.99N/A (N/A/61%)0 .. 20,0000%00:00 (00:00)
183 Bermuda Mar 17, 2015 $2.99N/A (N/A)50,000 .. 100,0000%00:00 (00:00)
184 The Deer God Feb 27, 2015 $14.99N/A (N/A/59%)20,000 .. 50,0000%00:00 (00:00)
185 Ukrainian Ninja Dec 23, 2014 FreeN/A (N/A)20,000 .. 50,0000%00:00 (00:00)
186 Phoenix Force Nov 13, 2014 $0.49N/A (N/A)20,000 .. 50,0000%00:00 (00:00)
187 TIMEframe Jul 7, 2015 $0.95N/A (N/A)50,000 .. 100,0000%00:00 (00:00)
188 Marvin's Mittens Dec 17, 2014 $5.99N/A (N/A)0 .. 20,0000%00:00 (00:00)
189 On A Roll 3D Feb 12, 2015 $2.99N/A (N/A)50,000 .. 100,0000%00:00 (00:00)

Tags over time:

Access restricted.

This feature is only available to users with special access rights. Sorry.

If you want to proceed, you need to register or log in first and then back Steam Spy on Patreon. Look for Indie or Pro pledge.

Don't forget to use the same email as on Steam Spy!

Owners of this game also own:

Access restricted.

This feature is only available to users with special access rights. Sorry.

If you want to proceed, you need to register or log in first and then back Steam Spy on Patreon. Look for Indie or Pro pledge.

Don't forget to use the same email as on Steam Spy!

Playtime distribution:

Access restricted.

This feature is only available to users with special access rights. Sorry.

If you want to proceed, you need to register or log in first and then back Steam Spy on Patreon. Look for Indie or Pro pledge.

Don't forget to use the same email as on Steam Spy!

Playtime (2 weeks):

Access restricted.

This feature is only available to users with special access rights. Sorry.

If you want to proceed, you need to register or log in first and then back Steam Spy on Patreon. Look for Indie or Pro pledge.

Don't forget to use the same email as on Steam Spy!

User reviews:

Login required.

Please register or log in to see this information.